createdAt,value
2017-10-20T00:00:58.266Z,80.47
2017-10-20T00:03:28.533Z,79.40
2017-10-20T00:05:58.365Z,74.10
2017-10-20T00:08:28.504Z,71.80
2017-10-20T00:10:58.320Z,75.57
2017-10-20T00:13:28.435Z,76.40
2017-10-20T00:15:58.264Z,77.37
2017-10-20T00:18:29.460Z,78.97
2017-10-20T00:20:59.249Z,76.87
2017-10-20T00:23:29.397Z,82.67
2017-10-20T00:25:59.221Z,73.07
2017-10-20T00:28:29.385Z,72.20
2017-10-20T00:30:59.225Z,74.93
2017-10-20T00:33:30.258Z,67.67
2017-10-20T00:36:00.180Z,70.10
2017-10-20T00:38:30.275Z,66.17
2017-10-20T00:41:00.093Z,74.20
2017-10-20T00:43:30.249Z,78.27
2017-10-20T00:46:00.702Z,79.50
2017-10-20T00:48:30.901Z,79.20
2017-10-20T00:51:00.737Z,74.07
2017-10-20T00:53:31.466Z,75.57
2017-10-20T00:56:01.312Z,77.70
2017-10-20T00:58:31.599Z,75.20
2017-10-20T01:01:01.447Z,71.90
2017-10-20T01:03:31.530Z,74.33
2017-10-20T01:06:01.437Z,72.00
2017-10-20T01:08:31.588Z,77.50
2017-10-20T01:11:02.300Z,73.03
2017-10-20T01:13:32.149Z,75.83
2017-10-20T01:16:01.954Z,77.70
2017-10-20T01:18:32.665Z,72.93
2017-10-20T01:21:02.748Z,70.67
2017-10-20T01:23:32.836Z,70.87
2017-10-20T01:26:02.670Z,70.63
2017-10-20T01:28:32.500Z,72.53
2017-10-20T01:31:02.358Z,68.50
2017-10-20T01:33:32.179Z,68.07
2017-10-20T01:36:01.994Z,70.33
2017-10-20T01:38:31.830Z,69.43
2017-10-20T01:41:02.311Z,69.87
2017-10-20T01:43:32.137Z,67.00
2017-10-20T01:46:01.984Z,65.30
2017-10-20T01:48:31.774Z,70.50
2017-10-20T01:51:02.106Z,62.37
2017-10-20T01:53:31.938Z,66.70
2017-10-20T01:56:01.764Z,66.30
2017-10-20T01:58:31.581Z,65.20
2017-10-20T02:01:01.461Z,63.97
2017-10-20T02:03:31.325Z,61.77
2017-10-20T02:06:01.459Z,64.90
2017-10-20T02:08:32.026Z,62.37
2017-10-20T02:11:01.847Z,65.40
2017-10-20T02:13:31.692Z,58.90
2017-10-20T02:16:01.566Z,61.57
2017-10-20T02:18:31.371Z,61.17
2017-10-20T02:21:01.178Z,58.50
2017-10-20T02:23:31.021Z,57.00
2017-10-20T02:26:00.841Z,60.93
2017-10-20T02:28:30.682Z,58.07
2017-10-20T02:31:01.320Z,60.00
2017-10-20T02:33:31.153Z,56.47
2017-10-20T02:36:01.006Z,58.00
2017-10-20T02:38:30.841Z,61.07
2017-10-20T02:41:01.706Z,57.53
2017-10-20T02:43:31.548Z,57.20
2017-10-20T02:46:01.353Z,57.70
2017-10-20T02:48:31.206Z,55.90
2017-10-20T02:51:01.041Z,54.70
2017-10-20T02:53:30.846Z,53.03
2017-10-20T02:56:00.662Z,55.03
2017-10-20T02:58:30.501Z,53.90
2017-10-20T03:01:00.299Z,52.27
2017-10-20T03:03:30.145Z,53.10
2017-10-20T03:05:59.948Z,51.13
2017-10-20T03:08:29.781Z,52.60
2017-10-20T03:10:59.591Z,50.27
2017-10-20T03:13:29.409Z,49.50
2017-10-20T03:15:59.221Z,49.07
2017-10-20T03:18:29.063Z,51.80
2017-10-20T03:20:59.599Z,51.97
2017-10-20T03:23:29.410Z,51.27
2017-10-20T03:25:59.253Z,50.57
2017-10-20T03:28:29.092Z,49.23
2017-10-20T03:30:58.902Z,47.80
2017-10-20T03:33:29.031Z,48.07
2017-10-20T03:35:58.981Z,48.10
2017-10-20T03:38:28.825Z,52.20
2017-10-20T03:40:58.668Z,49.87
2017-10-20T03:43:28.924Z,48.70
2017-10-20T03:45:58.729Z,49.87
2017-10-20T03:48:28.531Z,47.87
2017-10-20T03:50:58.402Z,44.47
2017-10-20T03:53:28.237Z,46.07
2017-10-20T03:55:58.083Z,46.60
2017-10-20T03:58:27.910Z,48.33
2017-10-20T04:00:58.595Z,44.83
2017-10-20T04:03:28.400Z,45.47
2017-10-20T04:05:58.274Z,46.40
2017-10-20T04:08:28.108Z,48.00
2017-10-20T04:10:57.983Z,44.57
2017-10-20T04:13:27.853Z,43.90
2017-10-20T04:15:57.686Z,43.67
2017-10-20T04:18:27.573Z,44.67
2017-10-20T04:20:57.410Z,42.30
2017-10-20T04:23:27.253Z,42.87
2017-10-20T04:25:57.138Z,46.87
2017-10-20T04:28:26.979Z,45.50
2017-10-20T04:30:56.834Z,45.37
2017-10-20T04:33:26.610Z,45.40
2017-10-20T04:35:56.430Z,44.53
2017-10-20T04:38:26.240Z,43.67
2017-10-20T04:40:56.313Z,44.87
2017-10-20T04:43:26.137Z,43.13
2017-10-20T04:45:55.957Z,43.27
2017-10-20T04:48:25.765Z,40.83
2017-10-20T04:50:55.570Z,42.63
2017-10-20T04:53:31.266Z,44.60
2017-10-20T04:56:01.065Z,43.63
2017-10-20T04:58:30.908Z,43.43
2017-10-20T05:01:00.722Z,42.03
2017-10-20T05:03:30.669Z,39.97
2017-10-20T05:06:00.509Z,43.53
2017-10-20T05:08:30.365Z,43.40
2017-10-20T05:11:00.232Z,41.97
2017-10-20T05:13:30.100Z,41.70
2017-10-20T05:15:59.973Z,40.80
2017-10-20T05:18:29.783Z,42.07
2017-10-20T05:20:59.685Z,40.00
2017-10-20T05:23:29.623Z,40.07
2017-10-20T05:25:59.405Z,42.80
2017-10-20T05:28:29.233Z,41.97
2017-10-20T05:30:59.075Z,37.20
2017-10-20T05:33:28.884Z,38.60
2017-10-20T05:35:58.705Z,38.27
2017-10-20T05:38:28.572Z,38.07
2017-10-20T05:40:58.382Z,38.00
2017-10-20T05:43:28.561Z,37.47
2017-10-20T05:45:58.388Z,41.00
2017-10-20T05:48:28.504Z,38.90
2017-10-20T05:50:58.347Z,35.73
2017-10-20T05:53:28.553Z,37.63
2017-10-20T05:55:58.366Z,36.40
2017-10-20T05:58:28.491Z,38.60
2017-10-20T06:00:58.299Z,35.17
2017-10-20T06:03:28.545Z,35.20
2017-10-20T06:05:58.360Z,35.70
2017-10-20T06:08:28.862Z,36.37
2017-10-20T06:10:58.675Z,36.03
2017-10-20T06:13:28.482Z,35.53
2017-10-20T06:15:58.325Z,40.03
2017-10-20T06:18:28.141Z,33.93
2017-10-20T06:20:57.971Z,36.00
2017-10-20T06:23:27.805Z,37.10
2017-10-20T06:25:57.641Z,35.17
2017-10-20T06:28:27.457Z,39.37
2017-10-20T06:30:57.313Z,33.60
2017-10-20T06:33:27.129Z,35.00
2017-10-20T06:35:56.942Z,34.20
2017-10-20T06:38:26.736Z,34.60
2017-10-20T06:40:56.544Z,38.07
2017-10-20T06:43:26.361Z,33.80
2017-10-20T06:45:57.181Z,35.23
2017-10-20T06:48:26.974Z,36.03
2017-10-20T06:50:56.779Z,37.40
2017-10-20T06:53:26.613Z,35.83
2017-10-20T06:55:56.530Z,36.73
2017-10-20T06:58:26.375Z,35.37
2017-10-20T07:00:56.230Z,35.87
2017-10-20T07:03:26.065Z,32.33
2017-10-20T07:05:55.890Z,34.60
2017-10-20T07:08:25.718Z,34.00
2017-10-20T07:10:56.532Z,33.10
2017-10-20T07:13:30.153Z,32.37
2017-10-20T07:16:03.116Z,32.30
2017-10-20T07:18:34.230Z,31.73
2017-10-20T07:21:06.965Z,34.83
2017-10-20T07:23:40.659Z,32.93
2017-10-20T07:26:12.474Z,30.50
2017-10-20T07:28:42.379Z,29.77
2017-10-20T07:31:13.373Z,31.23
2017-10-20T07:33:43.155Z,31.67
2017-10-20T07:36:17.900Z,30.40
2017-10-20T07:38:48.444Z,32.03
2017-10-20T07:41:22.781Z,30.53
2017-10-20T07:43:55.035Z,30.03
2017-10-20T07:46:24.897Z,31.27
2017-10-20T07:48:54.723Z,32.63
2017-10-20T07:51:24.843Z,30.33
2017-10-20T07:53:54.729Z,28.80
2017-10-20T07:56:25.567Z,32.00
2017-10-20T07:58:55.380Z,32.03
2017-10-20T08:01:25.507Z,29.37
2017-10-20T08:03:55.322Z,31.73
2017-10-20T08:06:25.405Z,30.63
2017-10-20T08:08:55.218Z,30.87
2017-10-20T08:11:25.398Z,29.80
2017-10-20T08:13:55.237Z,32.37
2017-10-20T08:16:25.339Z,27.60
2017-10-20T08:18:55.289Z,30.90
2017-10-20T08:21:25.424Z,30.27
2017-10-20T08:23:55.274Z,29.90
2017-10-20T08:26:25.420Z,26.80
2017-10-20T08:28:55.243Z,27.13
2017-10-20T08:31:25.346Z,28.97
2017-10-20T08:33:55.171Z,27.13
2017-10-20T08:36:25.025Z,26.97
2017-10-20T08:38:54.855Z,26.33
2017-10-20T08:41:24.726Z,27.67
2017-10-20T08:43:54.573Z,28.80
2017-10-20T08:46:24.413Z,29.03
2017-10-20T08:48:54.271Z,28.17
2017-10-20T08:51:24.805Z,25.43
2017-10-20T08:53:54.627Z,25.73
2017-10-20T08:56:24.445Z,25.07
2017-10-20T08:58:54.259Z,25.93
2017-10-20T09:01:24.174Z,23.50
2017-10-20T09:03:54.068Z,23.47
2017-10-20T09:06:23.947Z,23.60
2017-10-20T09:08:54.276Z,24.90
2017-10-20T09:11:24.111Z,24.83
2017-10-20T09:13:53.949Z,27.37
2017-10-20T09:16:23.797Z,22.97
2017-10-20T09:18:53.590Z,21.50
2017-10-20T09:21:24.191Z,22.47
2017-10-20T09:23:55.763Z,24.47
2017-10-20T09:26:26.350Z,24.63
2017-10-20T09:28:56.210Z,25.07
2017-10-20T09:31:27.159Z,23.03
2017-10-20T09:33:57.849Z,22.40
2017-10-20T09:36:27.702Z,20.97
2017-10-20T09:38:59.195Z,23.40
2017-10-20T09:41:29.094Z,22.00
2017-10-20T09:43:58.946Z,22.60
2017-10-20T09:46:28.873Z,20.80
2017-10-20T09:48:59.090Z,21.97
2017-10-20T09:51:28.914Z,21.57
2017-10-20T09:53:59.036Z,21.07
2017-10-20T09:56:28.866Z,22.13
2017-10-20T09:58:58.683Z,21.00
2017-10-20T10:01:28.525Z,24.00
2017-10-20T10:03:58.847Z,20.90
2017-10-20T10:06:28.637Z,22.17
2017-10-20T10:08:58.500Z,20.60
2017-10-20T10:11:28.330Z,21.40
2017-10-20T10:13:58.160Z,21.50
2017-10-20T10:16:28.078Z,20.70
2017-10-20T10:18:57.884Z,20.80
2017-10-20T10:21:27.729Z,21.33
2017-10-20T10:23:57.629Z,22.70
2017-10-20T10:26:27.757Z,22.57
2017-10-20T10:28:57.573Z,22.13
2017-10-20T10:31:27.389Z,20.00
2017-10-20T10:33:57.190Z,21.73
2017-10-20T10:36:27.031Z,20.53
2017-10-20T10:38:56.849Z,21.03
2017-10-20T10:41:26.681Z,20.10
2017-10-20T10:43:56.539Z,22.50
2017-10-20T10:46:26.350Z,22.73
2017-10-20T10:48:56.191Z,21.33
2017-10-20T10:51:26.050Z,22.20
2017-10-20T10:53:55.870Z,20.40
2017-10-20T10:56:25.690Z,19.07
2017-10-20T10:58:55.541Z,22.03
2017-10-20T11:01:25.728Z,20.50
2017-10-20T11:03:55.613Z,19.50
2017-10-20T11:06:31.740Z,20.30
2017-10-20T11:09:07.382Z,18.40
2017-10-20T11:11:43.603Z,17.97
2017-10-20T11:14:13.439Z,22.47
2017-10-20T11:16:43.598Z,19.93
2017-10-20T11:19:13.394Z,19.23
2017-10-20T11:21:43.558Z,20.20
2017-10-20T11:24:13.359Z,20.60
2017-10-20T11:26:43.617Z,17.87
2017-10-20T11:29:13.623Z,19.40
2017-10-20T11:31:43.750Z,19.37
2017-10-20T11:34:13.599Z,20.00
2017-10-20T11:36:43.432Z,20.23
2017-10-20T11:39:13.257Z,21.37
2017-10-20T11:41:43.089Z,20.73
2017-10-20T11:44:12.912Z,19.23
2017-10-20T11:46:42.754Z,20.43
2017-10-20T11:49:12.761Z,22.13
2017-10-20T11:51:42.570Z,21.90
2017-10-20T11:54:12.438Z,19.97
2017-10-20T11:56:42.270Z,21.40
2017-10-20T11:59:12.168Z,22.10
2017-10-20T12:01:41.983Z,22.93
2017-10-20T12:04:11.831Z,19.83
2017-10-20T12:06:41.683Z,20.13
2017-10-20T12:09:11.499Z,19.50
2017-10-20T12:11:41.436Z,19.10
2017-10-20T12:14:11.296Z,20.80
2017-10-20T12:16:41.128Z,19.40
2017-10-20T12:19:11.223Z,19.00
2017-10-20T12:21:41.155Z,19.87
2017-10-20T12:24:11.037Z,20.20
2017-10-20T12:26:40.972Z,20.10
2017-10-20T12:29:10.910Z,20.10
2017-10-20T12:31:40.754Z,23.97
2017-10-20T12:34:10.607Z,20.73
2017-10-20T12:36:40.441Z,20.23
2017-10-20T12:39:10.596Z,23.10
2017-10-20T12:41:40.417Z,21.37
2017-10-20T12:44:10.594Z,21.73
2017-10-20T12:46:40.441Z,18.20
2017-10-20T12:49:10.569Z,20.60
2017-10-20T12:51:42.118Z,19.50
2017-10-20T12:54:13.654Z,24.10
2017-10-20T12:56:43.534Z,22.27
2017-10-20T12:59:13.735Z,21.43
2017-10-20T13:01:43.942Z,20.90
2017-10-20T13:04:14.040Z,19.70
2017-10-20T13:06:43.876Z,21.07
2017-10-20T13:09:14.006Z,20.10
2017-10-20T13:11:43.859Z,19.97
2017-10-20T13:14:14.038Z,19.00
2017-10-20T13:16:43.881Z,22.20
2017-10-20T13:19:13.816Z,21.73
2017-10-20T13:21:43.638Z,21.23
2017-10-20T13:24:13.495Z,20.67
2017-10-20T13:26:43.394Z,19.47
2017-10-20T13:29:13.206Z,20.73
2017-10-20T13:31:43.053Z,19.83
2017-10-20T13:34:12.876Z,22.00
2017-10-20T13:36:43.211Z,20.60
2017-10-20T13:39:13.059Z,21.50
2017-10-20T13:41:42.917Z,22.90
2017-10-20T13:44:12.767Z,21.60
2017-10-20T13:46:42.599Z,19.97
2017-10-20T13:49:12.465Z,22.40
2017-10-20T13:51:42.341Z,20.50
2017-10-20T13:54:12.197Z,18.77
2017-10-20T13:56:42.470Z,19.83
2017-10-20T13:59:13.217Z,21.83
2017-10-20T14:01:43.673Z,20.17
2017-10-20T14:04:13.494Z,19.53
2017-10-20T14:06:44.199Z,20.70
2017-10-20T14:09:14.068Z,20.30
2017-10-20T14:11:43.944Z,21.00
